sensor_id;sensor_type;location;lat;lon;timestamp;temperature;humidity
14140;DHT22;7150;53.514;9.988;2023-09-19T00:00:30;19.10;99.90
14140;DHT22;7150;53.514;9.988;2023-09-19T00:02:57;19.20;99.90
14140;DHT22;7150;53.514;9.988;2023-09-19T00:05:28;19.10;99.90
14140;DHT22;7150;53.514;9.988;2023-09-19T00:07:55;19.20;99.90
14140;DHT22;7150;53.514;9.988;2023-09-19T00:10:25;19.20;99.90
14140;DHT22;7150;53.514;9.988;2023-09-19T00:12:53;19.20;99.90
14140;DHT22;7150;53.514;9.988;2023-09-19T00:15:21;19.20;99.90
14140;DHT22;7150;53.514;9.988;2023-09-19T00:17:46;19.20;99.90
14140;DHT22;7150;53.514;9.988;2023-09-19T00:20:13;19.10;99.90
14140;DHT22;7150;53.514;9.988;2023-09-19T00:22:41;19.20;99.90
14140;DHT22;7150;53.514;9.988;2023-09-19T00:25:08;19.20;99.90
14140;DHT22;7150;53.514;9.988;2023-09-19T00:27:35;19.20;99.90
14140;DHT22;7150;53.514;9.988;2023-09-19T00:30:04;19.20;99.90
14140;DHT22;7150;53.514;9.988;2023-09-19T00:32:30;19.10;99.90
14140;DHT22;7150;53.514;9.988;2023-09-19T00:34:55;19.20;99.90
14140;DHT22;7150;53.514;9.988;2023-09-19T00:37:21;19.10;99.90
14140;DHT22;7150;53.514;9.988;2023-09-19T00:39:47;19.10;99.90
14140;DHT22;7150;53.514;9.988;2023-09-19T00:42:19;19.10;99.90
14140;DHT22;7150;53.514;9.988;2023-09-19T00:44:46;19.10;99.90
14140;DHT22;7150;53.514;9.988;2023-09-19T00:47:11;19.10;99.90
14140;DHT22;7150;53.514;9.988;2023-09-19T00:49:42;19.00;99.90
14140;DHT22;7150;53.514;9.988;2023-09-19T00:52:07;19.10;99.90
14140;DHT22;7150;53.514;9.988;2023-09-19T00:54:35;19.00;99.90
14140;DHT22;7150;53.514;9.988;2023-09-19T00:57:01;19.00;99.90
14140;DHT22;7150;53.514;9.988;2023-09-19T00:59:27;19.20;99.90
14140;DHT22;7150;53.514;9.988;2023-09-19T01:01:54;19.00;99.90
14140;DHT22;7150;53.514;9.988;2023-09-19T01:04:20;19.10;99.90
14140;DHT22;7150;53.514;9.988;2023-09-19T01:06:45;19.10;99.90
14140;DHT22;7150;53.514;9.988;2023-09-19T01:09:11;19.10;99.90
14140;DHT22;7150;53.514;9.988;2023-09-19T01:11:47;19.00;99.90
14140;DHT22;7150;53.514;9.988;2023-09-19T01:14:57;19.00;99.90
14140;DHT22;7150;53.514;9.988;2023-09-19T01:17:45;19.10;99.90
14140;DHT22;7150;53.514;9.988;2023-09-19T01:23:23;19.00;99.90
14140;DHT22;7150;53.514;9.988;2023-09-19T01:29:23;19.00;99.90
14140;DHT22;7150;53.514;9.988;2023-09-19T01:31:39;19.00;99.90
14140;DHT22;7150;53.514;9.988;2023-09-19T01:34:05;19.00;99.90
14140;DHT22;7150;53.514;9.988;2023-09-19T01:36:33;19.00;99.90
14140;DHT22;7150;53.514;9.988;2023-09-19T01:39:05;19.00;99.90
14140;DHT22;7150;53.514;9.988;2023-09-19T01:44:44;19.00;99.90
14140;DHT22;7150;53.514;9.988;2023-09-19T01:47:33;19.00;99.90
14140;DHT22;7150;53.514;9.988;2023-09-19T01:50:13;19.00;99.90
14140;DHT22;7150;53.514;9.988;2023-09-19T01:55:30;19.00;99.90
14140;DHT22;7150;53.514;9.988;2023-09-19T02:00:51;19.00;99.90
14140;DHT22;7150;53.514;9.988;2023-09-19T02:03:17;19.10;99.90
14140;DHT22;7150;53.514;9.988;2023-09-19T02:05:49;19.10;99.90
14140;DHT22;7150;53.514;9.988;2023-09-19T02:08:17;19.10;99.90
14140;DHT22;7150;53.514;9.988;2023-09-19T02:10:44;19.10;99.90
14140;DHT22;7150;53.514;9.988;2023-09-19T02:13:17;19.10;99.90
14140;DHT22;7150;53.514;9.988;2023-09-19T02:15:44;19.10;99.90
14140;DHT22;7150;53.514;9.988;2023-09-19T02:18:10;19.10;99.90
14140;DHT22;7150;53.514;9.988;2023-09-19T02:20:37;19.10;99.90
14140;DHT22;7150;53.514;9.988;2023-09-19T02:23:03;19.00;99.90
14140;DHT22;7150;53.514;9.988;2023-09-19T02:25:29;19.00;99.90
14140;DHT22;7150;53.514;9.988;2023-09-19T02:27:56;19.00;99.90
14140;DHT22;7150;53.514;9.988;2023-09-19T02:30:23;19.00;99.90
14140;DHT22;7150;53.514;9.988;2023-09-19T02:32:50;18.90;99.90
14140;DHT22;7150;53.514;9.988;2023-09-19T02:35:16;18.90;99.90
14140;DHT22;7150;53.514;9.988;2023-09-19T02:37:42;18.90;99.90
14140;DHT22;7150;53.514;9.988;2023-09-19T02:40:08;18.90;99.90
14140;DHT22;7150;53.514;9.988;2023-09-19T02:42:44;18.90;99.90
14140;DHT22;7150;53.514;9.988;2023-09-19T02:45:16;18.90;99.90
14140;DHT22;7150;53.514;9.988;2023-09-19T02:47:43;18.90;99.90
14140;DHT22;7150;53.514;9.988;2023-09-19T02:50:09;18.90;99.90
14140;DHT22;7150;53.514;9.988;2023-09-19T02:52:40;18.90;99.90
14140;DHT22;7150;53.514;9.988;2023-09-19T02:55:08;18.80;99.90
14140;DHT22;7150;53.514;9.988;2023-09-19T02:57:35;18.80;99.90
14140;DHT22;7150;53.514;9.988;2023-09-19T03:00:02;18.80;99.90
14140;DHT22;7150;53.514;9.988;2023-09-19T03:02:28;18.80;99.90
14140;DHT22;7150;53.514;9.988;2023-09-19T03:04:54;18.80;99.90
14140;DHT22;7150;53.514;9.988;2023-09-19T03:07:19;18.80;99.90
14140;DHT22;7150;53.514;9.988;2023-09-19T03:09:45;18.80;99.90
14140;DHT22;7150;53.514;9.988;2023-09-19T03:12:11;18.80;99.90
14140;DHT22;7150;53.514;9.988;2023-09-19T03:14:36;18.80;99.90
14140;DHT22;7150;53.514;9.988;2023-09-19T03:17:02;18.80;99.90
14140;DHT22;7150;53.514;9.988;2023-09-19T03:19:30;18.80;99.90
14140;DHT22;7150;53.514;9.988;2023-09-19T03:21:58;18.70;99.90
14140;DHT22;7150;53.514;9.988;2023-09-19T03:24:24;18.70;99.90
14140;DHT22;7150;53.514;9.988;2023-09-19T03:26:49;18.70;99.90
14140;DHT22;7150;53.514;9.988;2023-09-19T03:29:15;18.70;99.90
14140;DHT22;7150;53.514;9.988;2023-09-19T03:31:42;18.70;99.90
14140;DHT22;7150;53.514;9.988;2023-09-19T03:34:08;18.70;99.90
14140;DHT22;7150;53.514;9.988;2023-09-19T03:36:34;18.70;99.90
14140;DHT22;7150;53.514;9.988;2023-09-19T03:39:00;18.70;99.90
14140;DHT22;7150;53.514;9.988;2023-09-19T03:41:25;18.70;99.90
14140;DHT22;7150;53.514;9.988;2023-09-19T03:43:51;18.70;99.90
14140;DHT22;7150;53.514;9.988;2023-09-19T03:46:16;18.70;99.90
14140;DHT22;7150;53.514;9.988;2023-09-19T03:48:42;18.60;99.90
14140;DHT22;7150;53.514;9.988;2023-09-19T03:51:08;18.60;99.90
14140;DHT22;7150;53.514;9.988;2023-09-19T03:53:33;18.60;99.90
14140;DHT22;7150;53.514;9.988;2023-09-19T03:55:59;18.60;99.90
14140;DHT22;7150;53.514;9.988;2023-09-19T03:58:25;18.50;99.90
14140;DHT22;7150;53.514;9.988;2023-09-19T04:00:55;18.50;99.90
14140;DHT22;7150;53.514;9.988;2023-09-19T04:03:21;18.50;99.90
14140;DHT22;7150;53.514;9.988;2023-09-19T04:05:47;18.40;99.90
14140;DHT22;7150;53.514;9.988;2023-09-19T04:08:15;18.40;99.90
14140;DHT22;7150;53.514;9.988;2023-09-19T04:10:43;18.30;99.90
14140;DHT22;7150;53.514;9.988;2023-09-19T04:13:10;18.90;99.90
14140;DHT22;7150;53.514;9.988;2023-09-19T04:15:35;18.20;99.90
14140;DHT22;7150;53.514;9.988;2023-09-19T04:18:01;18.20;99.90
14140;DHT22;7150;53.514;9.988;2023-09-19T04:20:28;18.10;99.90
14140;DHT22;7150;53.514;9.988;2023-09-19T04:22:54;18.10;99.90
14140;DHT22;7150;53.514;9.988;2023-09-19T04:25:20;18.00;99.90
14140;DHT22;7150;53.514;9.988;2023-09-19T04:27:46;18.00;99.90
14140;DHT22;7150;53.514;9.988;2023-09-19T04:30:14;18.00;99.90
14140;DHT22;7150;53.514;9.988;2023-09-19T04:32:40;18.00;99.90
14140;DHT22;7150;53.514;9.988;2023-09-19T04:35:10;17.90;99.90
14140;DHT22;7150;53.514;9.988;2023-09-19T04:37:38;17.90;99.90
14140;DHT22;7150;53.514;9.988;2023-09-19T04:40:05;17.90;99.90
14140;DHT22;7150;53.514;9.988;2023-09-19T04:42:31;17.90;99.90
14140;DHT22;7150;53.514;9.988;2023-09-19T04:44:57;17.90;99.90
14140;DHT22;7150;53.514;9.988;2023-09-19T04:47:25;17.80;99.90
14140;DHT22;7150;53.514;9.988;2023-09-19T04:49:50;17.80;99.90
14140;DHT22;7150;53.514;9.988;2023-09-19T04:52:22;17.80;99.90
14140;DHT22;7150;53.514;9.988;2023-09-19T04:54:47;17.80;99.90
14140;DHT22;7150;53.514;9.988;2023-09-19T04:57:13;17.80;99.90
14140;DHT22;7150;53.514;9.988;2023-09-19T04:59:39;17.80;99.90
14140;DHT22;7150;53.514;9.988;2023-09-19T05:02:06;17.80;99.90
14140;DHT22;7150;53.514;9.988;2023-09-19T05:04:33;17.70;99.90
14140;DHT22;7150;53.514;9.988;2023-09-19T05:06:59;17.70;99.90
14140;DHT22;7150;53.514;9.988;2023-09-19T05:09:26;17.70;99.90
14140;DHT22;7150;53.514;9.988;2023-09-19T05:11:51;17.70;99.90
14140;DHT22;7150;53.514;9.988;2023-09-19T05:14:18;17.70;99.90
14140;DHT22;7150;53.514;9.988;2023-09-19T05:16:44;17.70;99.90
14140;DHT22;7150;53.514;9.988;2023-09-19T05:19:09;17.70;99.90
14140;DHT22;7150;53.514;9.988;2023-09-19T05:21:36;17.70;99.90
14140;DHT22;7150;53.514;9.988;2023-09-19T05:24:04;17.70;99.90
14140;DHT22;7150;53.514;9.988;2023-09-19T05:26:32;17.70;99.90
14140;DHT22;7150;53.514;9.988;2023-09-19T05:28:57;17.70;99.90
14140;DHT22;7150;53.514;9.988;2023-09-19T05:31:23;17.70;99.90
14140;DHT22;7150;53.514;9.988;2023-09-19T05:33:49;17.70;99.90
14140;DHT22;7150;53.514;9.988;2023-09-19T05:36:15;17.70;99.90
14140;DHT22;7150;53.514;9.988;2023-09-19T05:38:41;17.70;99.90
14140;DHT22;7150;53.514;9.988;2023-09-19T05:41:08;17.60;99.90
14140;DHT22;7150;53.514;9.988;2023-09-19T05:43:34;17.60;99.90
14140;DHT22;7150;53.514;9.988;2023-09-19T05:46:02;17.70;99.90
14140;DHT22;7150;53.514;9.988;2023-09-19T05:48:28;17.60;99.90
14140;DHT22;7150;53.514;9.988;2023-09-19T05:50:54;17.60;99.90
14140;DHT22;7150;53.514;9.988;2023-09-19T05:53:20;17.60;99.90
14140;DHT22;7150;53.514;9.988;2023-09-19T05:55:45;17.60;99.90
14140;DHT22;7150;53.514;9.988;2023-09-19T05:58:11;17.60;99.90
14140;DHT22;7150;53.514;9.988;2023-09-19T06:00:40;17.60;99.90
14140;DHT22;7150;53.514;9.988;2023-09-19T06:03:08;17.60;99.90
14140;DHT22;7150;53.514;9.988;2023-09-19T06:05:33;17.60;99.90
14140;DHT22;7150;53.514;9.988;2023-09-19T06:07:59;17.60;99.90
14140;DHT22;7150;53.514;9.988;2023-09-19T06:10:26;17.60;99.90
14140;DHT22;7150;53.514;9.988;2023-09-19T06:12:51;17.60;99.90
14140;DHT22;7150;53.514;9.988;2023-09-19T06:15:18;17.60;99.90
14140;DHT22;7150;53.514;9.988;2023-09-19T06:17:53;17.60;99.90
14140;DHT22;7150;53.514;9.988;2023-09-19T06:20:20;17.70;99.90
14140;DHT22;7150;53.514;9.988;2023-09-19T06:22:47;17.60;99.90
14140;DHT22;7150;53.514;9.988;2023-09-19T06:25:14;17.70;99.90
14140;DHT22;7150;53.514;9.988;2023-09-19T06:27:48;17.70;99.90
14140;DHT22;7150;53.514;9.988;2023-09-19T06:30:13;17.70;99.90
14140;DHT22;7150;53.514;9.988;2023-09-19T06:32:40;17.80;99.90
14140;DHT22;7150;53.514;9.988;2023-09-19T06:35:12;17.80;99.90
14140;DHT22;7150;53.514;9.988;2023-09-19T06:37:38;17.80;99.90
14140;DHT22;7150;53.514;9.988;2023-09-19T06:40:09;17.80;99.90
14140;DHT22;7150;53.514;9.988;2023-09-19T06:42:40;17.80;99.90
14140;DHT22;7150;53.514;9.988;2023-09-19T06:45:06;17.70;99.90
14140;DHT22;7150;53.514;9.988;2023-09-19T06:47:32;17.80;99.90
14140;DHT22;7150;53.514;9.988;2023-09-19T06:49:58;17.80;99.90
14140;DHT22;7150;53.514;9.988;2023-09-19T06:52:23;17.80;99.90
14140;DHT22;7150;53.514;9.988;2023-09-19T06:54:49;17.80;99.90
14140;DHT22;7150;53.514;9.988;2023-09-19T06:57:16;17.80;99.90
14140;DHT22;7150;53.514;9.988;2023-09-19T06:59:41;17.80;99.90
14140;DHT22;7150;53.514;9.988;2023-09-19T07:02:07;17.80;99.90
14140;DHT22;7150;53.514;9.988;2023-09-19T07:04:33;17.90;99.90
14140;DHT22;7150;53.514;9.988;2023-09-19T07:06:59;17.90;99.90
14140;DHT22;7150;53.514;9.988;2023-09-19T07:09:24;17.90;99.90
14140;DHT22;7150;53.514;9.988;2023-09-19T07:11:52;17.90;99.90
14140;DHT22;7150;53.514;9.988;2023-09-19T07:14:18;18.00;99.90
14140;DHT22;7150;53.514;9.988;2023-09-19T07:16:44;17.90;99.90
14140;DHT22;7150;53.514;9.988;2023-09-19T07:19:10;17.90;99.90
14140;DHT22;7150;53.514;9.988;2023-09-19T07:21:36;17.90;99.90
14140;DHT22;7150;53.514;9.988;2023-09-19T07:24:03;18.00;99.90
14140;DHT22;7150;53.514;9.988;2023-09-19T07:26:29;18.00;99.90
14140;DHT22;7150;53.514;9.988;2023-09-19T07:28:54;18.00;99.90
14140;DHT22;7150;53.514;9.988;2023-09-19T07:31:21;17.90;99.90
14140;DHT22;7150;53.514;9.988;2023-09-19T07:33:48;18.00;99.90
14140;DHT22;7150;53.514;9.988;2023-09-19T07:36:13;18.00;99.90
14140;DHT22;7150;53.514;9.988;2023-09-19T07:38:40;18.00;99.90
14140;DHT22;7150;53.514;9.988;2023-09-19T07:41:06;18.00;99.90
14140;DHT22;7150;53.514;9.988;2023-09-19T07:43:32;18.10;99.90
14140;DHT22;7150;53.514;9.988;2023-09-19T07:46:03;18.10;99.90
14140;DHT22;7150;53.514;9.988;2023-09-19T07:48:29;18.10;99.90
14140;DHT22;7150;53.514;9.988;2023-09-19T07:50:54;18.80;99.90
14140;DHT22;7150;53.514;9.988;2023-09-19T07:53:20;18.10;99.90
14140;DHT22;7150;53.514;9.988;2023-09-19T07:55:45;18.10;99.90
14140;DHT22;7150;53.514;9.988;2023-09-19T07:58:13;18.10;99.90
14140;DHT22;7150;53.514;9.988;2023-09-19T08:00:41;18.10;99.90
14140;DHT22;7150;53.514;9.988;2023-09-19T08:03:07;18.10;99.90
14140;DHT22;7150;53.514;9.988;2023-09-19T08:05:34;18.00;99.90
14140;DHT22;7150;53.514;9.988;2023-09-19T08:07:59;18.00;99.90
14140;DHT22;7150;53.514;9.988;2023-09-19T08:10:25;17.90;99.90
14140;DHT22;7150;53.514;9.988;2023-09-19T08:12:52;18.10;99.90
14140;DHT22;7150;53.514;9.988;2023-09-19T08:15:23;18.40;99.90
14140;DHT22;7150;53.514;9.988;2023-09-19T08:17:49;17.90;99.90
14140;DHT22;7150;53.514;9.988;2023-09-19T08:20:15;17.90;99.90
14140;DHT22;7150;53.514;9.988;2023-09-19T08:22:51;17.90;99.90
14140;DHT22;7150;53.514;9.988;2023-09-19T08:25:21;17.90;99.90
14140;DHT22;7150;53.514;9.988;2023-09-19T08:27:48;17.90;99.90
14140;DHT22;7150;53.514;9.988;2023-09-19T08:30:16;17.90;99.90
14140;DHT22;7150;53.514;9.988;2023-09-19T08:32:41;17.90;99.90
14140;DHT22;7150;53.514;9.988;2023-09-19T08:35:11;17.90;99.90
14140;DHT22;7150;53.514;9.988;2023-09-19T08:37:37;18.00;99.90
14140;DHT22;7150;53.514;9.988;2023-09-19T08:40:03;18.00;99.90
14140;DHT22;7150;53.514;9.988;2023-09-19T08:42:29;18.00;99.90
14140;DHT22;7150;53.514;9.988;2023-09-19T08:44:55;18.00;99.90
14140;DHT22;7150;53.514;9.988;2023-09-19T08:47:37;17.90;99.90
14140;DHT22;7150;53.514;9.988;2023-09-19T08:50:26;18.00;99.90
14140;DHT22;7150;53.514;9.988;2023-09-19T08:52:55;18.00;99.90
14140;DHT22;7150;53.514;9.988;2023-09-19T08:55:27;18.10;99.90
14140;DHT22;7150;53.514;9.988;2023-09-19T08:58:00;18.10;99.90
14140;DHT22;7150;53.514;9.988;2023-09-19T09:00:27;17.90;99.90
14140;DHT22;7150;53.514;9.988;2023-09-19T09:02:54;18.20;99.90
14140;DHT22;7150;53.514;9.988;2023-09-19T09:05:20;18.20;99.90
14140;DHT22;7150;53.514;9.988;2023-09-19T09:07:49;18.20;99.90
14140;DHT22;7150;53.514;9.988;2023-09-19T09:10:17;18.30;99.90
14140;DHT22;7150;53.514;9.988;2023-09-19T09:12:43;18.30;99.90
14140;DHT22;7150;53.514;9.988;2023-09-19T09:15:09;18.30;99.90
14140;DHT22;7150;53.514;9.988;2023-09-19T09:17:37;18.30;99.90
14140;DHT22;7150;53.514;9.988;2023-09-19T09:20:03;18.30;99.90
14140;DHT22;7150;53.514;9.988;2023-09-19T09:22:33;18.30;99.90
14140;DHT22;7150;53.514;9.988;2023-09-19T09:24:59;18.40;99.90
14140;DHT22;7150;53.514;9.988;2023-09-19T09:27:26;18.40;99.90
14140;DHT22;7150;53.514;9.988;2023-09-19T09:29:53;18.40;99.90
14140;DHT22;7150;53.514;9.988;2023-09-19T09:32:28;18.40;99.90
14140;DHT22;7150;53.514;9.988;2023-09-19T09:35:06;18.50;99.90
14140;DHT22;7150;53.514;9.988;2023-09-19T09:37:34;18.50;99.90
14140;DHT22;7150;53.514;9.988;2023-09-19T09:40:04;18.60;99.90
14140;DHT22;7150;53.514;9.988;2023-09-19T09:42:38;18.60;99.90
14140;DHT22;7150;53.514;9.988;2023-09-19T09:45:20;18.70;99.90
14140;DHT22;7150;53.514;9.988;2023-09-19T09:47:58;18.60;99.90
14140;DHT22;7150;53.514;9.988;2023-09-19T09:50:31;18.60;99.90
14140;DHT22;7150;53.514;9.988;2023-09-19T09:56:08;18.70;99.90
14140;DHT22;7150;53.514;9.988;2023-09-19T09:58:51;18.70;99.90
14140;DHT22;7150;53.514;9.988;2023-09-19T10:01:24;18.70;99.90
14140;DHT22;7150;53.514;9.988;2023-09-19T10:03:57;18.70;99.90
14140;DHT22;7150;53.514;9.988;2023-09-19T10:06:23;18.80;99.90
14140;DHT22;7150;53.514;9.988;2023-09-19T10:09:01;18.90;99.90
14140;DHT22;7150;53.514;9.988;2023-09-19T10:11:31;18.90;99.90
14140;DHT22;7150;53.514;9.988;2023-09-19T10:14:00;18.90;99.90
14140;DHT22;7150;53.514;9.988;2023-09-19T10:16:30;18.90;99.90
14140;DHT22;7150;53.514;9.988;2023-09-19T10:18:59;18.90;99.90
14140;DHT22;7150;53.514;9.988;2023-09-19T10:21:28;19.00;99.90
14140;DHT22;7150;53.514;9.988;2023-09-19T10:23:58;19.00;99.90
14140;DHT22;7150;53.514;9.988;2023-09-19T10:26:28;19.00;99.90
14140;DHT22;7150;53.514;9.988;2023-09-19T10:28:57;19.10;99.90
14140;DHT22;7150;53.514;9.988;2023-09-19T10:31:26;19.10;99.90
14140;DHT22;7150;53.514;9.988;2023-09-19T10:33:53;19.20;99.90
14140;DHT22;7150;53.514;9.988;2023-09-19T10:36:23;19.10;99.90
14140;DHT22;7150;53.514;9.988;2023-09-19T10:38:52;19.20;99.90
14140;DHT22;7150;53.514;9.988;2023-09-19T10:41:22;19.20;99.90
14140;DHT22;7150;53.514;9.988;2023-09-19T10:43:48;19.20;99.90
14140;DHT22;7150;53.514;9.988;2023-09-19T10:46:16;19.20;99.90
14140;DHT22;7150;53.514;9.988;2023-09-19T10:48:42;19.30;99.90
14140;DHT22;7150;53.514;9.988;2023-09-19T10:51:18;19.20;99.90
14140;DHT22;7150;53.514;9.988;2023-09-19T10:53:54;19.20;99.90
14140;DHT22;7150;53.514;9.988;2023-09-19T10:56:27;19.20;99.90
14140;DHT22;7150;53.514;9.988;2023-09-19T10:59:08;19.30;99.90
14140;DHT22;7150;53.514;9.988;2023-09-19T11:01:48;19.30;99.90
14140;DHT22;7150;53.514;9.988;2023-09-19T11:04:29;19.30;99.90
14140;DHT22;7150;53.514;9.988;2023-09-19T11:07:07;19.30;99.90
14140;DHT22;7150;53.514;9.988;2023-09-19T11:09:50;19.30;99.90
14140;DHT22;7150;53.514;9.988;2023-09-19T11:15:06;19.40;99.90
14140;DHT22;7150;53.514;9.988;2023-09-19T11:17:37;19.30;99.90
14140;DHT22;7150;53.514;9.988;2023-09-19T11:30:39;19.50;99.90
14140;DHT22;7150;53.514;9.988;2023-09-19T11:33:18;19.50;99.90
14140;DHT22;7150;53.514;9.988;2023-09-19T11:36:16;19.50;99.90
14140;DHT22;7150;53.514;9.988;2023-09-19T11:46:17;19.60;99.90
14140;DHT22;7150;53.514;9.988;2023-09-19T11:48:48;19.60;99.90
14140;DHT22;7150;53.514;9.988;2023-09-19T11:51:16;19.60;99.90
14140;DHT22;7150;53.514;9.988;2023-09-19T11:53:48;19.60;99.90
14140;DHT22;7150;53.514;9.988;2023-09-19T11:56:38;19.60;99.90
14140;DHT22;7150;53.514;9.988;2023-09-19T11:59:06;19.60;99.90
14140;DHT22;7150;53.514;9.988;2023-09-19T12:01:33;19.60;99.90
14140;DHT22;7150;53.514;9.988;2023-09-19T12:04:02;19.70;99.90
14140;DHT22;7150;53.514;9.988;2023-09-19T12:06:30;19.70;99.90
14140;DHT22;7150;53.514;9.988;2023-09-19T12:08:55;19.70;99.90
14140;DHT22;7150;53.514;9.988;2023-09-19T12:11:22;19.70;99.90
14140;DHT22;7150;53.514;9.988;2023-09-19T12:13:49;19.70;99.90
14140;DHT22;7150;53.514;9.988;2023-09-19T12:16:19;19.70;99.90
14140;DHT22;7150;53.514;9.988;2023-09-19T12:18:47;19.80;99.90
14140;DHT22;7150;53.514;9.988;2023-09-19T12:21:29;19.80;99.90
14140;DHT22;7150;53.514;9.988;2023-09-19T12:24:09;19.70;99.90
14140;DHT22;7150;53.514;9.988;2023-09-19T12:26:45;19.80;99.90
14140;DHT22;7150;53.514;9.988;2023-09-19T12:29:19;19.80;99.90
14140;DHT22;7150;53.514;9.988;2023-09-19T12:31:55;19.80;99.90
14140;DHT22;7150;53.514;9.988;2023-09-19T12:34:31;19.90;99.90
14140;DHT22;7150;53.514;9.988;2023-09-19T12:37:16;19.90;99.90
14140;DHT22;7150;53.514;9.988;2023-09-19T12:39:49;19.90;99.90
14140;DHT22;7150;53.514;9.988;2023-09-19T12:42:19;19.90;99.90
14140;DHT22;7150;53.514;9.988;2023-09-19T12:44:47;19.90;99.90
14140;DHT22;7150;53.514;9.988;2023-09-19T12:47:15;20.00;99.90
14140;DHT22;7150;53.514;9.988;2023-09-19T12:52:40;20.00;99.70
14140;DHT22;7150;53.514;9.988;2023-09-19T12:55:06;20.00;99.50
14140;DHT22;7150;53.514;9.988;2023-09-19T12:57:33;20.10;99.30
14140;DHT22;7150;53.514;9.988;2023-09-19T13:00:03;20.10;98.90
14140;DHT22;7150;53.514;9.988;2023-09-19T13:02:32;20.00;98.70
14140;DHT22;7150;53.514;9.988;2023-09-19T13:04:58;20.10;99.10
14140;DHT22;7150;53.514;9.988;2023-09-19T13:07:45;20.10;99.20
14140;DHT22;7150;53.514;9.988;2023-09-19T13:10:14;20.10;98.90
14140;DHT22;7150;53.514;9.988;2023-09-19T13:12:42;20.20;98.70
14140;DHT22;7150;53.514;9.988;2023-09-19T13:15:13;20.20;98.40
14140;DHT22;7150;53.514;9.988;2023-09-19T13:17:49;20.20;98.40
14140;DHT22;7150;53.514;9.988;2023-09-19T13:22:53;20.20;98.40
14140;DHT22;7150;53.514;9.988;2023-09-19T13:25:26;20.30;98.40
14140;DHT22;7150;53.514;9.988;2023-09-19T13:27:56;20.30;98.10
14140;DHT22;7150;53.514;9.988;2023-09-19T13:30:23;20.30;98.10
14140;DHT22;7150;53.514;9.988;2023-09-19T13:32:50;20.40;98.40
14140;DHT22;7150;53.514;9.988;2023-09-19T13:35:17;20.40;98.60
14140;DHT22;7150;53.514;9.988;2023-09-19T13:37:43;20.40;98.30
14140;DHT22;7150;53.514;9.988;2023-09-19T13:40:13;20.50;98.30
14140;DHT22;7150;53.514;9.988;2023-09-19T13:42:38;20.50;98.40
14140;DHT22;7150;53.514;9.988;2023-09-19T13:45:05;20.50;98.30
14140;DHT22;7150;53.514;9.988;2023-09-19T13:47:31;20.60;98.20
14140;DHT22;7150;53.514;9.988;2023-09-19T13:50:01;20.60;98.00
14140;DHT22;7150;53.514;9.988;2023-09-19T13:52:29;20.60;97.90
14140;DHT22;7150;53.514;9.988;2023-09-19T13:54:56;20.60;97.90
14140;DHT22;7150;53.514;9.988;2023-09-19T13:57:22;20.60;98.10
14140;DHT22;7150;53.514;9.988;2023-09-19T13:59:48;20.60;98.30
14140;DHT22;7150;53.514;9.988;2023-09-19T14:02:13;20.70;98.40
14140;DHT22;7150;53.514;9.988;2023-09-19T14:04:39;20.70;98.40
14140;DHT22;7150;53.514;9.988;2023-09-19T14:07:05;20.70;98.40
14140;DHT22;7150;53.514;9.988;2023-09-19T14:09:32;20.80;98.00
14140;DHT22;7150;53.514;9.988;2023-09-19T14:11:59;20.80;98.00
14140;DHT22;7150;53.514;9.988;2023-09-19T14:14:24;20.70;97.90
14140;DHT22;7150;53.514;9.988;2023-09-19T14:16:50;20.80;97.90
14140;DHT22;7150;53.514;9.988;2023-09-19T14:19:17;20.80;97.70
14140;DHT22;7150;53.514;9.988;2023-09-19T14:21:43;21.00;97.40
14140;DHT22;7150;53.514;9.988;2023-09-19T14:24:09;20.80;97.30
14140;DHT22;7150;53.514;9.988;2023-09-19T14:26:38;20.80;97.30
14140;DHT22;7150;53.514;9.988;2023-09-19T14:29:04;20.80;97.40
14140;DHT22;7150;53.514;9.988;2023-09-19T14:31:33;20.80;97.50
14140;DHT22;7150;53.514;9.988;2023-09-19T14:33:59;20.80;97.80
14140;DHT22;7150;53.514;9.988;2023-09-19T14:36:25;20.80;97.90
14140;DHT22;7150;53.514;9.988;2023-09-19T14:38:54;20.80;98.10
14140;DHT22;7150;53.514;9.988;2023-09-19T14:41:20;20.80;98.20
14140;DHT22;7150;53.514;9.988;2023-09-19T14:43:46;20.80;98.20
14140;DHT22;7150;53.514;9.988;2023-09-19T14:46:12;20.80;98.40
14140;DHT22;7150;53.514;9.988;2023-09-19T14:48:37;20.90;98.40
14140;DHT22;7150;53.514;9.988;2023-09-19T14:51:04;20.90;98.50
14140;DHT22;7150;53.514;9.988;2023-09-19T14:53:30;20.90;98.60
14140;DHT22;7150;53.514;9.988;2023-09-19T14:55:56;20.80;98.50
14140;DHT22;7150;53.514;9.988;2023-09-19T14:58:22;20.80;98.60
14140;DHT22;7150;53.514;9.988;2023-09-19T15:00:47;20.90;98.70
14140;DHT22;7150;53.514;9.988;2023-09-19T15:03:13;20.80;98.80
14140;DHT22;7150;53.514;9.988;2023-09-19T15:05:42;20.80;98.90
14140;DHT22;7150;53.514;9.988;2023-09-19T15:08:08;20.70;99.00
14140;DHT22;7150;53.514;9.988;2023-09-19T15:10:34;20.80;99.20
14140;DHT22;7150;53.514;9.988;2023-09-19T15:13:00;20.80;99.10
14140;DHT22;7150;53.514;9.988;2023-09-19T15:15:25;20.70;99.10
14140;DHT22;7150;53.514;9.988;2023-09-19T15:17:51;20.70;99.30
14140;DHT22;7150;53.514;9.988;2023-09-19T15:20:16;20.70;99.40
14140;DHT22;7150;53.514;9.988;2023-09-19T15:22:43;20.70;99.50
14140;DHT22;7150;53.514;9.988;2023-09-19T15:25:09;20.60;99.50
14140;DHT22;7150;53.514;9.988;2023-09-19T15:27:35;20.60;99.60
14140;DHT22;7150;53.514;9.988;2023-09-19T15:30:02;20.60;99.70
14140;DHT22;7150;53.514;9.988;2023-09-19T15:32:28;20.50;99.60
14140;DHT22;7150;53.514;9.988;2023-09-19T15:34:53;20.50;99.60
14140;DHT22;7150;53.514;9.988;2023-09-19T15:37:19;20.50;99.80
14140;DHT22;7150;53.514;9.988;2023-09-19T15:39:45;20.50;99.90
14140;DHT22;7150;53.514;9.988;2023-09-19T15:42:11;20.60;99.90
14140;DHT22;7150;53.514;9.988;2023-09-19T15:44:37;20.50;99.90
14140;DHT22;7150;53.514;9.988;2023-09-19T15:47:03;20.50;99.90
14140;DHT22;7150;53.514;9.988;2023-09-19T15:49:29;20.50;99.90
14140;DHT22;7150;53.514;9.988;2023-09-19T15:51:55;20.80;99.90
14140;DHT22;7150;53.514;9.988;2023-09-19T15:54:20;20.50;99.90
14140;DHT22;7150;53.514;9.988;2023-09-19T15:56:47;20.50;99.90
14140;DHT22;7150;53.514;9.988;2023-09-19T15:59:14;20.50;99.90
14140;DHT22;7150;53.514;9.988;2023-09-19T16:01:44;20.40;99.90
14140;DHT22;7150;53.514;9.988;2023-09-19T16:04:10;20.40;99.90
14140;DHT22;7150;53.514;9.988;2023-09-19T16:06:37;20.40;99.90
14140;DHT22;7150;53.514;9.988;2023-09-19T16:09:04;20.40;99.90
14140;DHT22;7150;53.514;9.988;2023-09-19T16:11:33;20.40;99.90
14140;DHT22;7150;53.514;9.988;2023-09-19T16:13:59;20.40;99.90
14140;DHT22;7150;53.514;9.988;2023-09-19T16:16:26;20.40;99.90
14140;DHT22;7150;53.514;9.988;2023-09-19T16:18:57;20.30;99.90
14140;DHT22;7150;53.514;9.988;2023-09-19T16:21:23;20.30;99.90
14140;DHT22;7150;53.514;9.988;2023-09-19T16:23:50;20.30;99.90
14140;DHT22;7150;53.514;9.988;2023-09-19T16:26:17;20.30;99.90
14140;DHT22;7150;53.514;9.988;2023-09-19T16:28:47;20.30;99.90
14140;DHT22;7150;53.514;9.988;2023-09-19T16:31:14;20.20;99.90
14140;DHT22;7150;53.514;9.988;2023-09-19T16:33:41;20.20;99.90
14140;DHT22;7150;53.514;9.988;2023-09-19T16:36:08;20.20;99.90